Time;durP1;ratioP1;P1;durP2;ratioP2;P2;SDS_P1;SDS_P2;PMS_P1;PMS_P2;Temp;Humidity;BMP_temperature;BMP_pressure;BME280_temperature;BME280_humidity;BME280_pressure;Samples;Min_cycle;Max_cycle;Signal;HPM_P1;HPM_P2
2022/08/11 00:01:45;;;;;;;;;8.33;7.67;;;;;27.30;48.43;101563.25;4940187;28;45317;-93
2022/08/11 00:04:11;;;;;;;;;10.00;9.00;;;;;27.25;48.60;101553.44;4955197;28;45399;-93
2022/08/11 00:06:39;;;;;;;;;15.33;9.00;;;;;27.24;49.22;101557.94;4954968;28;45393;-93
2022/08/11 00:09:09;;;;;;;;;9.00;9.00;;;;;27.17;48.67;101551.75;4942241;28;47343;-93
2022/08/11 00:11:38;;;;;;;;;10.67;9.67;;;;;27.17;48.99;101564.31;4940539;28;45498;-93
2022/08/11 00:14:13;;;;;;;;;9.67;9.67;;;;;27.13;48.99;101562.56;4948930;28;45321;-92
2022/08/11 00:16:40;;;;;;;;;9.00;9.00;;;;;27.05;49.04;101554.53;4951113;28;45177;-93
2022/08/11 00:19:07;;;;;;;;;9.33;8.33;;;;;27.03;49.05;101564.44;4949376;28;46625;-93
2022/08/11 00:21:40;;;;;;;;;10.00;10.00;;;;;26.98;49.22;101556.44;4951381;28;45327;-93
2022/08/11 00:24:05;;;;;;;;;8.00;8.00;;;;;26.93;49.37;101558.28;4951486;28;45381;-91
2022/08/11 00:26:34;;;;;;;;;6.67;5.33;;;;;26.89;49.34;101557.41;4964509;28;45284;-92
2022/08/11 00:29:08;;;;;;;;;9.33;9.00;;;;;26.86;49.49;101557.44;4961472;28;47172;-93
2022/08/11 00:31:35;;;;;;;;;11.00;11.00;;;;;26.83;49.52;101557.47;4961945;28;45395;-92
2022/08/11 00:34:02;;;;;;;;;10.00;10.00;;;;;26.76;49.46;101553.94;4962450;28;45358;-92
2022/08/11 00:36:39;;;;;;;;;9.33;8.00;;;;;26.71;49.61;101555.78;4950579;28;45589;-94
2022/08/11 00:39:06;;;;;;;;;11.00;10.00;;;;;26.65;49.50;101551.34;4941983;28;47331;-92
2022/08/11 00:41:46;;;;;;;;;11.67;10.00;;;;;26.65;49.74;101562.13;4942184;28;45345;-92
2022/08/11 00:44:39;;;;;;;;;9.67;9.33;;;;;26.60;50.04;101555.88;4943080;28;45377;-92
2022/08/11 00:47:13;;;;;;;;;8.00;8.00;;;;;26.58;49.58;101561.28;4943278;28;45578;-94
2022/08/11 00:49:44;;;;;;;;;7.00;7.00;;;;;26.53;49.82;101558.66;4949667;28;47440;-94
2022/08/11 00:52:28;;;;;;;;;11.67;10.67;;;;;26.50;50.38;101569.44;4949462;28;45477;-93
2022/08/11 00:55:02;;;;;;;;;9.67;9.67;;;;;26.45;50.94;101563.19;4947974;28;45362;-93
2022/08/11 00:57:48;;;;;;;;;9.00;8.33;;;;;26.38;50.41;101556.06;4943003;28;45518;-93
2022/08/11 01:00:19;;;;;;;;;7.00;7.00;;;;;26.35;50.43;101559.66;4942163;28;47132;-92
2022/08/11 01:02:59;;;;;;;;;8.00;8.00;;;;;26.28;50.63;101561.53;4942853;28;45595;-93
2022/08/11 01:05:55;;;;;;;;;9.33;9.33;;;;;26.22;50.92;101570.53;4943019;28;45370;-93
2022/08/11 01:09:05;;;;;;;;;8.33;8.33;;;;;26.16;50.84;101561.59;4954545;28;45280;-93
2022/08/11 01:11:52;;;;;;;;;9.33;8.00;;;;;26.09;51.13;101552.69;4957389;28;47204;-91
2022/08/11 01:14:32;;;;;;;;;8.00;8.00;;;;;26.02;51.05;101551.84;4960811;28;45371;-93
2022/08/11 01:17:45;;;;;;;;;8.33;7.33;;;;;25.97;51.17;101559.03;4962361;28;45502;-93
2022/08/11 01:20:29;;;;;;;;;10.00;8.00;;;;;25.91;51.35;101553.69;4965822;28;45477;-93
2022/08/11 01:23:06;;;;;;;;;8.33;8.33;;;;;25.86;51.61;101549.25;4969108;28;47622;-93
2022/08/11 01:25:34;;;;;;;;;7.00;7.00;;;;;25.83;51.32;101546.56;4965802;28;45373;-93
2022/08/11 01:28:00;;;;;;;;;10.00;9.00;;;;;25.81;51.51;101559.13;4960752;28;45268;-93
2022/08/11 01:30:46;;;;;;;;;8.67;8.67;;;;;25.78;51.46;101551.97;4959596;28;45618;-93
2022/08/11 01:33:30;;;;;;;;;9.00;9.00;;;;;25.74;51.43;101546.66;4957950;28;48263;-91
2022/08/11 01:36:11;;;;;;;;;8.33;8.33;;;;;25.71;51.66;101543.94;4951205;28;45829;-92
2022/08/11 01:39:10;;;;;;;;;7.00;7.00;;;;;25.68;51.61;101555.59;4947274;28;45446;-92
2022/08/11 01:44:37;;;;;;;;;9.00;9.00;;;;;25.59;51.76;101544.91;4960183;28;45495;-93
2022/08/11 01:50:20;;;;;;;;;8.00;8.00;;;;;25.48;52.11;101540.47;4960880;28;45407;-93
2022/08/11 01:53:07;;;;;;;;;12.00;8.33;;;;;25.44;52.01;101544.94;4961342;28;45347;-93
2022/08/11 01:55:46;;;;;;;;;9.33;9.33;;;;;25.39;52.36;101543.19;4967263;28;47356;-93
2022/08/11 01:58:11;;;;;;;;;8.00;8.00;;;;;25.37;52.01;101548.56;4973157;28;45303;-92
2022/08/11 02:00:51;;;;;;;;;7.33;7.00;;;;;25.33;52.37;101545.00;4968464;28;45373;-93
2022/08/11 02:03:35;;;;;;;;;11.33;8.67;;;;;25.30;52.33;101549.50;4965087;28;45374;-91
2022/08/11 02:09:11;;;;;;;;;9.67;8.67;;;;;25.20;52.77;101544.13;4960786;28;45344;-93
2022/08/11 02:11:37;;;;;;;;;9.33;9.33;;;;;25.16;52.43;101539.69;4959709;28;45362;-92
2022/08/11 02:14:38;;;;;;;;;7.00;7.00;;;;;25.14;52.35;101541.50;4960720;28;45417;-92
2022/08/11 02:17:21;;;;;;;;;8.00;8.00;;;;;25.13;52.84;101542.38;4961746;28;47146;-92
2022/08/11 02:26:02;;;;;;;;;6.67;6.67;;;;;25.02;53.06;101547.81;4972947;28;45287;-93
2022/08/11 02:28:52;;;;;;;;;7.00;7.00;;;;;25.00;52.88;101550.47;4984246;28;47183;-93
2022/08/11 02:34:54;;;;;;;;;8.00;7.00;;;;;24.94;53.10;101539.72;4978289;28;45401;-92
2022/08/11 02:37:26;;;;;;;;;10.33;10.33;;;;;24.91;53.68;101537.03;4940260;28;45418;-92
2022/08/11 02:40:14;;;;;;;;;12.00;11.33;;;;;24.85;53.67;101537.03;4937986;28;46381;-92
2022/08/11 02:42:55;;;;;;;;;12.67;11.00;;;;;24.82;54.22;101531.69;4937752;28;45751;-93
2022/08/11 02:45:45;;;;;;;;;11.67;10.00;;;;;24.77;54.66;101521.84;4938325;28;45401;-94
2022/08/11 02:51:24;;;;;;;;;13.00;11.67;;;;;24.62;55.10;101498.63;4937635;28;45685;-93
2022/08/11 02:54:07;;;;;;;;;12.33;11.33;;;;;24.62;55.54;101513.81;4936163;28;45302;-92
2022/08/11 02:57:16;;;;;;;;;10.00;10.00;;;;;24.53;55.70;101496.84;4936943;28;45419;-93
2022/08/11 02:59:51;;;;;;;;;10.33;9.67;;;;;24.50;55.70;101496.88;4940109;28;45517;-93
2022/08/11 03:02:31;;;;;;;;;10.67;10.33;;;;;24.46;56.00;101486.13;4944870;28;46376;-91
2022/08/11 03:04:56;;;;;;;;;10.67;10.67;;;;;24.41;56.44;101484.34;4944898;28;45350;-92
2022/08/11 03:07:30;;;;;;;;;12.33;11.33;;;;;24.37;56.52;101478.97;4941139;28;45312;-92
2022/08/11 03:10:17;;;;;;;;;10.00;10.00;;;;;24.30;56.78;101472.75;4952923;28;45484;-92
2022/08/11 03:18:41;;;;;;;;;10.00;10.00;;;;;24.17;57.21;101456.59;4937726;28;45395;-93
2022/08/11 03:21:24;;;;;;;;;13.00;12.67;;;;;24.11;57.43;101452.16;4937565;28;45355;-93
2022/08/11 03:24:14;;;;;;;;;13.00;11.33;;;;;24.04;57.80;101436.97;4936216;28;48327;-93
2022/08/11 03:26:52;;;;;;;;;13.67;12.33;;;;;24.00;57.78;101428.00;4952594;28;45383;-93
2022/08/11 03:29:30;;;;;;;;;12.33;12.33;;;;;23.94;57.94;101424.44;4951956;28;45353;-92
2022/08/11 03:32:05;;;;;;;;;12.67;12.67;;;;;23.92;58.01;101423.53;4937804;28;45382;-93
2022/08/11 03:34:34;;;;;;;;;15.67;13.67;;;;;23.90;58.48;101418.19;4948875;28;45415;-92
2022/08/11 03:43:50;;;;;;;;;13.33;12.33;;;;;23.74;58.51;101403.88;4880683;29;45365;-93
2022/08/11 03:46:31;;;;;;;;;13.67;13.33;;;;;23.64;59.02;101387.78;4885143;29;45419;-93
2022/08/11 03:49:05;;;;;;;;;16.33;14.33;;;;;23.63;58.98;101386.00;4884554;29;46640;-93
2022/08/11 03:51:54;;;;;;;;;15.75;14.25;;;;;23.60;59.40;101385.13;4885168;29;45461;-92
2022/08/11 03:54:39;;;;;;;;;15.00;13.00;;;;;23.55;59.25;101388.66;4885400;29;45371;-91
2022/08/11 03:57:20;;;;;;;;;13.33;12.00;;;;;23.50;59.73;101377.06;4864718;29;46614;-93
2022/08/11 04:00:21;;;;;;;;;14.00;13.00;;;;;23.43;59.80;101365.41;4878300;29;45437;-93
2022/08/11 04:03:01;;;;;;;;;12.00;12.00;;;;;23.41;60.13;101359.16;4862523;29;45350;-92
2022/08/11 04:05:46;;;;;;;;;13.00;13.00;;;;;23.37;59.95;101346.66;4863689;29;45396;-93
2022/08/11 04:08:42;;;;;;;;;15.00;11.00;;;;;23.33;60.25;101348.44;4869739;29;47416;-93
2022/08/11 04:11:41;;;;;;;;;14.00;14.00;;;;;23.27;60.42;101347.53;4886573;29;45445;-93
2022/08/11 04:17:34;;;;;;;;;13.00;12.67;;;;;23.22;60.69;101337.69;4903704;28;45314;-93
2022/08/11 04:20:29;;;;;;;;;14.67;11.67;;;;;23.18;60.56;101332.34;4937129;28;48259;-91
2022/08/11 04:23:22;;;;;;;;;13.33;12.33;;;;;23.16;60.99;101328.78;4943512;28;45464;-91
2022/08/11 04:26:25;;;;;;;;;10.67;10.67;;;;;23.12;60.87;101317.16;4946854;28;45340;-93
2022/08/11 04:29:00;;;;;;;;;13.00;11.00;;;;;23.09;61.21;101309.16;4964396;28;45533;-91
2022/08/11 04:31:36;;;;;;;;;14.67;13.67;;;;;22.97;60.98;101294.81;4964855;28;48098;-92
2022/08/11 04:34:43;;;;;;;;;10.33;10.33;;;;;23.04;61.41;101308.25;4973990;28;45237;-93
2022/08/11 04:37:48;;;;;;;;;11.00;11.00;;;;;23.00;61.39;101296.63;4954766;28;45557;-93
2022/08/11 04:41:02;;;;;;;;;11.00;11.00;;;;;22.97;61.61;101294.81;4954951;28;45295;-93
2022/08/11 04:44:14;;;;;;;;;13.00;13.00;;;;;22.91;61.81;101285.91;4869057;29;47506;-93
2022/08/11 04:47:10;;;;;;;;;12.75;12.75;;;;;22.92;61.58;101279.63;4869111;29;45721;-92
2022/08/11 05:01:40;;;;;;;;;13.33;12.00;;;;;22.82;62.36;101249.28;4881145;29;45444;-93
2022/08/11 05:07:38;;;;;;;;;12.67;12.67;;;;;22.84;62.73;101236.81;4881459;29;45393;-92
2022/08/11 05:10:25;;;;;;;;;16.00;13.33;;;;;22.85;62.47;101238.59;4866376;29;45829;-92
2022/08/11 05:27:09;;;;;;;;;11.00;11.00;;;;;22.87;63.11;101239.50;4864544;29;45368;-93
2022/08/11 05:36:35;;;;;;;;;15.00;14.00;;;;;23.32;63.23;101226.13;4911403;28;45226;-93
2022/08/11 05:58:40;;;;;;;;;15.00;14.00;;;;;23.98;62.86;101270.72;4879645;29;45485;-93
2022/08/11 06:01:06;;;;;;;;;15.33;13.67;;;;;24.09;63.10;101282.34;4909674;28;45534;-92
2022/08/11 06:04:12;;;;;;;;;11.67;11.00;;;;;24.18;63.13;101280.50;4942038;28;45435;-92
2022/08/11 06:06:24;;;;;;;;;13.00;12.00;;;;;24.24;63.15;101277.81;4942920;28;45219;-93
2022/08/11 06:08:55;;;;;;;;;17.00;12.33;;;;;24.35;62.60;101299.28;4938762;28;45356;-93
2022/08/11 06:11:23;;;;;;;;;15.67;14.67;;;;;24.41;62.73;101284.91;4945057;28;45347;-92
2022/08/11 06:14:03;;;;;;;;;12.67;12.33;;;;;24.50;62.77;101309.03;4949167;28;48213;-93
2022/08/11 06:16:32;;;;;;;;;12.33;11.33;;;;;24.59;63.00;101291.09;4942617;28;44962;-93
2022/08/11 06:18:59;;;;;;;;;12.67;11.67;;;;;24.65;62.54;101299.13;4933672;28;45435;-93
2022/08/11 06:21:26;;;;;;;;;14.00;12.67;;;;;24.71;62.71;101319.69;4944643;28;45394;-93
2022/08/11 06:23:52;;;;;;;;;13.00;13.00;;;;;24.73;62.20;101316.09;4940917;28;47433;-92
2022/08/11 06:26:19;;;;;;;;;14.33;14.33;;;;;24.78;62.15;101322.31;4964329;28;45406;-92
2022/08/11 06:28:46;;;;;;;;;10.67;10.67;;;;;24.87;62.12;101325.84;4959346;28;45383;-93
2022/08/11 06:31:15;;;;;;;;;12.00;12.00;;;;;24.95;61.89;101332.06;4957605;28;45424;-93
2022/08/11 06:33:49;;;;;;;;;12.00;12.00;;;;;25.08;60.88;101372.31;4940405;28;48155;-91
2022/08/11 06:36:27;;;;;;;;;10.33;10.33;;;;;25.14;60.69;101385.72;4947732;28;45382;-93
2022/08/11 06:39:20;;;;;;;;;12.00;9.33;;;;;25.25;59.59;101407.16;4936263;28;45391;-93
2022/08/11 06:42:03;;;;;;;;;9.67;9.33;;;;;25.37;59.58;101427.66;4950692;28;45291;-92
2022/08/11 06:44:38;;;;;;;;;9.67;9.67;;;;;25.47;58.63;101431.19;4939213;28;46639;-92
2022/08/11 06:47:08;;;;;;;;;10.33;9.33;;;;;25.54;58.67;101435.59;4937978;28;45867;-92
2022/08/11 06:52:38;;;;;;;;;8.00;8.00;;;;;25.72;57.30;101465.94;4938040;28;45429;-92
2022/08/11 06:55:09;;;;;;;;;9.67;8.67;;;;;25.84;57.45;101469.50;4939258;28;45772;-92
2022/08/11 07:00:29;;;;;;;;;9.33;8.00;;;;;25.97;56.76;101491.81;4945836;28;45474;-91
2022/08/11 07:03:14;;;;;;;;;8.00;8.00;;;;;26.10;56.59;101498.00;4938933;28;45431;-92
2022/08/11 07:06:12;;;;;;;;;9.67;8.67;;;;;26.18;55.96;101511.38;4953047;28;48330;-93
2022/08/11 07:15:42;;;;;;;;;9.00;9.00;;;;;26.48;54.68;101538.97;4937987;28;45517;-93
2022/08/11 07:29:35;;;;;;;;;8.67;7.67;;;;;26.87;53.22;101559.22;4943528;28;45279;-93
2022/08/11 07:32:12;;;;;;;;;12.67;11.00;;;;;26.95;53.36;101565.44;4943120;28;45303;-93
2022/08/11 07:34:43;;;;;;;;;9.67;8.67;;;;;27.04;53.24;101563.53;4942573;28;45468;-93
2022/08/11 07:37:16;;;;;;;;;9.67;9.00;;;;;27.12;53.15;101569.72;4951999;28;45392;-93
2022/08/11 07:39:43;;;;;;;;;9.67;7.67;;;;;27.15;53.34;101558.06;4955993;28;46700;-92
2022/08/11 07:42:12;;;;;;;;;7.67;7.00;;;;;27.22;53.09;101557.06;4955834;28;45795;-92
2022/08/11 07:52:58;;;;;;;;;8.67;7.67;;;;;27.62;52.53;101569.16;4877982;29;45449;-91
2022/08/11 07:55:26;;;;;;;;;8.33;7.33;;;;;27.71;52.45;101565.44;4862092;29;45351;-93
2022/08/11 08:20:11;;;;;;;;;7.00;6.00;;;;;28.51;50.23;101566.97;4858574;29;45420;-93
2022/08/11 08:22:37;;;;;;;;;7.67;7.67;;;;;28.62;49.91;101563.19;4859445;29;47119;-93
2022/08/11 08:25:04;;;;;;;;;8.00;8.00;;;;;28.71;49.91;101571.09;4875664;29;45377;-93
2022/08/11 08:27:29;;;;;;;;;9.33;8.33;;;;;28.81;49.54;101570.97;4930141;28;45422;-94
2022/08/11 08:32:42;;;;;;;;;7.00;7.00;;;;;29.01;49.22;101573.28;4948535;28;45346;-92
2022/08/11 08:35:10;;;;;;;;;7.00;7.00;;;;;29.10;49.34;101575.81;4940412;28;45819;-93
2022/08/11 08:37:36;;;;;;;;;6.00;6.00;;;;;29.20;48.88;101584.63;4909263;28;45254;-93
2022/08/11 08:40:03;;;;;;;;;7.00;7.00;;;;;29.29;49.11;101580.88;4912309;28;45600;-93
2022/08/11 08:42:31;;;;;;;;;7.33;7.00;;;;;29.38;48.51;101573.50;4905530;28;47711;-93
2022/08/11 08:45:09;;;;;;;;;5.67;5.67;;;;;29.48;48.82;101580.50;4925850;28;45408;-94
2022/08/11 08:47:43;;;;;;;;;7.33;6.00;;;;;29.60;48.53;101586.53;4915496;28;45436;-91
2022/08/11 08:50:12;;;;;;;;;7.00;6.00;;;;;29.66;47.88;101575.59;4930546;28;45234;-92
2022/08/11 08:52:44;;;;;;;;;5.00;5.00;;;;;29.75;48.11;101575.41;4903804;28;47549;-93
2022/08/11 08:55:15;;;;;;;;;8.00;8.00;;;;;29.83;48.49;101572.53;4903580;28;45369;-94
2022/08/11 08:57:43;;;;;;;;;7.00;7.00;;;;;29.91;48.19;101577.75;4903587;28;45404;-94
2022/08/11 09:00:09;;;;;;;;;8.67;8.67;;;;;30.00;47.81;101582.06;4903878;28;45274;-95
2022/08/11 09:02:36;;;;;;;;;8.00;6.67;;;;;30.02;47.57;101569.41;4903245;28;47473;-92
2022/08/11 09:05:03;;;;;;;;;7.33;5.00;;;;;30.22;47.63;101586.97;4904930;28;45832;-93
2022/08/11 09:07:30;;;;;;;;;7.33;5.67;;;;;30.27;47.39;101593.16;4912074;28;45701;-93
2022/08/11 09:09:58;;;;;;;;;7.67;5.00;;;;;30.33;47.27;101589.44;4945922;28;45427;-92
2022/08/11 09:12:29;;;;;;;;;7.00;7.00;;;;;30.31;46.65;101575.00;4925823;28;47318;-93
2022/08/11 09:15:05;;;;;;;;;6.00;6.00;;;;;30.44;47.06;101586.44;4925304;28;45813;-94
2022/08/11 09:17:38;;;;;;;;;6.33;6.33;;;;;30.45;46.92;101572.88;4922928;28;45366;-93
2022/08/11 09:20:08;;;;;;;;;6.67;6.67;;;;;30.63;46.66;101585.97;4922799;28;45424;-93
2022/08/11 09:28:15;;;;;;;;;5.00;5.00;;;;;30.85;46.27;101571.81;4959624;28;45556;-92
2022/08/11 09:30:43;;;;;;;;;6.00;6.00;;;;;30.85;46.58;101566.41;4942115;28;45389;-93
2022/08/11 09:33:12;;;;;;;;;5.00;4.67;;;;;30.89;46.16;101555.47;4958495;28;46441;-93
2022/08/11 09:35:42;;;;;;;;;7.33;6.67;;;;;31.04;46.10;101571.34;4948445;28;45391;-94
2022/08/11 09:40:55;;;;;;;;;5.67;5.67;;;;;31.21;45.71;101562.72;4963104;28;45292;-92
2022/08/11 09:46:07;;;;;;;;;5.00;5.00;;;;;31.45;45.22;101562.94;4958210;28;45366;-92
2022/08/11 09:48:40;;;;;;;;;6.33;4.67;;;;;31.67;45.55;101571.31;4957745;28;45426;-92
2022/08/11 09:51:07;;;;;;;;;6.67;6.33;;;;;31.86;44.43;101562.63;4957798;28;45584;-94
2022/08/11 09:53:39;;;;;;;;;6.67;6.67;;;;;32.13;44.56;101561.81;4956904;28;47189;-93
2022/08/11 09:58:55;;;;;;;;;6.33;6.33;;;;;32.54;43.79;101541.41;4958597;28;45374;-93
2022/08/11 10:01:28;;;;;;;;;7.00;6.00;;;;;32.83;43.30;101554.91;4957388;28;45442;-94
2022/08/11 10:03:58;;;;;;;;;9.00;6.33;;;;;33.06;43.13;101555.91;4957556;28;47633;-92
2022/08/11 10:09:16;;;;;;;;;5.00;5.00;;;;;33.68;43.09;101539.91;4958512;28;45455;-93
2022/08/11 10:11:42;;;;;;;;;4.00;4.00;;;;;33.98;41.50;101555.09;4961354;28;45322;-93
2022/08/11 10:16:54;;;;;;;;;5.00;5.00;;;;;34.52;41.17;101528.34;4959075;28;45639;-92
2022/08/11 10:19:21;;;;;;;;;5.33;5.33;;;;;34.87;40.22;101535.91;4956923;28;45344;-93
2022/08/11 10:27:18;;;;;;;;;8.00;6.00;;;;;36.02;39.61;101536.91;4958470;28;45490;-93
2022/08/11 10:35:16;;;;;;;;;6.00;6.00;;;;;36.57;38.08;101545.03;4935941;28;45904;-94
2022/08/11 10:37:44;;;;;;;;;8.00;8.00;;;;;36.67;38.50;101515.38;4903172;28;45948;-93
2022/08/11 10:40:14;;;;;;;;;4.67;4.67;;;;;37.11;37.68;101546.72;4903282;28;45427;-95
2022/08/11 10:48:11;;;;;;;;;8.67;7.00;;;;;37.93;36.92;101527.63;4926567;28;45412;-93
2022/08/11 10:58:56;;;;;;;;;6.00;6.00;;;;;42.99;35.64;101507.38;4921929;28;45750;-93
2022/08/11 11:01:31;;;;;;;;;8.67;7.67;;;;;44.91;34.23;101508.66;4922237;28;45416;-93
2022/08/11 11:04:00;;;;;;;;;8.00;7.67;;;;;46.84;32.10;101510.09;4903636;28;45456;-94
2022/08/11 11:06:43;;;;;;;;;7.00;7.00;;;;;48.74;31.26;101518.56;4903203;28;47668;-94
2022/08/11 11:09:19;;;;;;;;;5.00;5.00;;;;;50.30;29.26;101512.72;4921048;28;45247;-94
2022/08/11 11:17:55;;;;;;;;;6.00;6.00;;;;;54.12;27.00;101508.28;4938225;28;45420;-93
2022/08/11 11:20:25;;;;;;;;;9.00;7.00;;;;;55.19;26.27;101503.38;4920396;28;45517;-96
2022/08/11 11:22:54;;;;;;;;;7.00;7.00;;;;;56.10;25.28;101521.84;4938271;28;45438;-94
2022/08/11 11:25:41;;;;;;;;;7.00;7.00;;;;;56.87;25.64;101501.63;4920764;28;45545;-94
2022/08/11 11:28:12;;;;;;;;;6.67;6.67;;;;;57.78;23.91;101494.94;4920255;28;47484;-95
2022/08/11 11:31:10;;;;;;;;;7.00;6.67;;;;;58.52;23.26;101497.19;4920775;28;45363;-94
2022/08/11 11:34:13;;;;;;;;;6.00;6.00;;;;;59.29;23.51;101505.22;4937893;28;45474;-93
2022/08/11 11:36:52;;;;;;;;;5.33;5.33;;;;;60.02;23.10;101501.31;4937900;28;45339;-92
2022/08/11 11:39:22;;;;;;;;;5.67;5.67;;;;;60.41;22.21;101492.28;4922046;28;47334;-93
2022/08/11 11:41:52;;;;;;;;;6.00;6.00;;;;;60.88;22.14;101498.84;4925868;28;45415;-93
2022/08/11 11:44:20;;;;;;;;;5.33;5.33;;;;;61.27;21.51;101491.63;4944732;28;45311;-93
2022/08/11 11:46:46;;;;;;;;;7.67;6.67;;;;;61.75;21.89;101496.06;4939513;28;45332;-93
2022/08/11 11:49:14;;;;;;;;;5.00;4.00;;;;;62.26;21.51;101492.22;4937413;28;46348;-92
2022/08/11 11:51:40;;;;;;;;;6.00;6.00;;;;;62.69;20.53;101474.50;4920837;28;45342;-93
2022/08/11 11:54:06;;;;;;;;;5.00;5.00;;;;;63.09;19.71;101480.03;4937371;28;45346;-93
2022/08/11 11:56:33;;;;;;;;;6.33;6.33;;;;;63.45;20.59;101497.41;4938123;28;45394;-93
2022/08/11 12:01:44;;;;;;;;;5.75;5.75;;;;;64.28;19.55;101489.59;4938627;28;45389;-93
2022/08/11 12:04:12;;;;;;;;;5.25;5.25;;;;;64.53;18.10;101477.41;4921231;28;45475;-93
2022/08/11 12:06:39;;;;;;;;;6.00;6.00;;;;;64.83;19.72;101482.59;4921694;28;45681;-93
2022/08/11 12:09:05;;;;;;;;;6.25;5.75;;;;;65.13;19.47;101474.34;4922966;28;46133;-93
2022/08/11 12:14:19;;;;;;;;;6.25;6.00;;;;;65.79;18.59;101477.34;4943423;28;45357;-94
2022/08/11 12:16:46;;;;;;;;;5.50;5.50;;;;;65.96;18.46;101477.00;4921549;28;45370;-92
2022/08/11 12:19:14;;;;;;;;;6.75;5.75;;;;;65.99;17.53;101444.97;4920721;28;47106;-94
2022/08/11 12:27:19;;;;;;;;;5.75;5.75;;;;;66.16;18.67;101468.59;4921668;28;45694;-92
2022/08/11 12:27:22;;;;;;;;;6.00;6.00;;;;;66.50;17.88;101462.13;4940174;28;45554;-93
2022/08/11 12:29:54;;;;;;;;;4.25;4.25;;;;;66.86;17.35;101452.41;4920478;28;47054;-94
2022/08/11 12:32:23;;;;;;;;;4.50;4.50;;;;;67.12;17.63;101450.47;4918130;28;45391;-94
2022/08/11 12:34:49;;;;;;;;;6.00;6.00;;;;;67.36;17.55;101443.91;4917756;28;45461;-93
2022/08/11 12:37:22;;;;;;;;;5.25;5.25;;;;;67.59;17.69;101444.22;4973638;28;45473;-94
2022/08/11 12:45:28;;;;;;;;;5.00;5.00;;;;;68.31;17.11;101442.38;4958226;28;45422;-94
2022/08/11 12:54:09;;;;;;;;;7.75;5.50;;;;;69.06;16.47;101449.44;4956734;28;45481;-93
2022/08/11 13:05:01;;;;;;;;;4.50;4.50;;;;;70.32;16.35;101437.31;4956736;28;45469;-93
2022/08/11 13:07:29;;;;;;;;;5.25;5.25;;;;;70.59;15.81;101435.47;4962596;28;45384;-92
2022/08/11 13:09:55;;;;;;;;;6.00;6.00;;;;;70.82;15.89;101410.41;4962805;28;45455;-93
2022/08/11 13:15:12;;;;;;;;;5.50;5.50;;;;;71.48;15.54;101419.47;4956747;28;45407;-92
2022/08/11 13:17:40;;;;;;;;;4.00;4.00;;;;;71.78;15.62;101418.03;4955635;28;45520;-93
2022/08/11 13:20:08;;;;;;;;;5.75;5.75;;;;;72.22;15.54;101411.41;4956152;28;45666;-93
2022/08/11 13:22:36;;;;;;;;;5.75;5.75;;;;;72.64;15.25;101421.53;4959776;28;48069;-92
2022/08/11 13:25:03;;;;;;;;;6.00;6.00;;;;;73.01;14.78;101413.22;4959190;28;45797;-93
2022/08/11 13:27:29;;;;;;;;;7.00;7.00;;;;;73.45;15.02;101426.59;4959806;28;45544;-93
2022/08/11 13:32:43;;;;;;;;;6.50;6.50;;;;;74.22;15.06;101411.34;4960572;28;45412;-93
2022/08/11 13:35:13;;;;;;;;;6.75;6.75;;;;;74.55;14.85;101410.50;4960500;28;45912;-93
2022/08/11 13:37:40;;;;;;;;;6.50;5.75;;;;;74.74;14.13;101403.28;4912004;28;45407;-93
2022/08/11 13:40:07;;;;;;;;;5.00;5.00;;;;;75.00;14.57;101399.19;4912211;28;45363;-93
2022/08/11 13:42:33;;;;;;;;;6.75;6.75;;;;;75.17;14.33;101403.03;4906697;28;47275;-95
2022/08/11 13:44:59;;;;;;;;;6.25;6.00;;;;;75.07;14.50;101406.44;4905889;28;45427;-95
2022/08/11 13:47:25;;;;;;;;;7.00;6.75;;;;;74.89;13.99;101397.97;4923126;28;45345;-96
2022/08/11 13:49:51;;;;;;;;;6.00;6.00;;;;;74.50;13.40;101395.38;4905808;28;45342;-94
2022/08/11 13:52:18;;;;;;;;;7.25;7.25;;;;;73.68;13.97;101394.47;4906260;28;48209;-94
2022/08/11 13:54:46;;;;;;;;;7.75;7.50;;;;;72.65;14.38;101385.72;4904343;28;45392;-94
2022/08/11 13:57:14;;;;;;;;;6.50;6.25;;;;;71.92;14.02;101386.16;4906656;28;45467;-94
2022/08/11 13:59:40;;;;;;;;;6.00;6.00;;;;;71.28;14.64;101397.91;4906144;28;45795;-95
2022/08/11 14:02:13;;;;;;;;;4.75;4.75;;;;;71.28;14.13;101389.28;4905451;28;47229;-95
2022/08/11 14:04:55;;;;;;;;;7.75;7.75;;;;;71.96;15.02;101390.06;4926859;28;45369;-94
2022/08/11 14:07:23;;;;;;;;;6.00;6.00;;;;;72.42;14.39;101388.81;4913346;28;45434;-93
2022/08/11 14:09:59;;;;;;;;;7.25;7.25;;;;;72.94;14.86;101392.72;4912877;28;45383;-94
2022/08/11 14:15:26;;;;;;;;;5.75;5.75;;;;;74.02;14.11;101387.91;4924711;28;45369;-93
2022/08/11 14:18:02;;;;;;;;;7.00;6.75;;;;;74.06;14.30;101388.06;4905727;28;45448;-94
2022/08/11 14:22:05;;;;;;;;;7.50;6.00;;;;;73.70;14.05;101380.53;4904282;28;45372;-94
2022/08/11 14:23:18;;;;;;;;;6.50;6.50;;;;;73.20;14.40;101388.88;4920364;28;45322;-93
2022/08/11 14:26:22;;;;;;;;;7.00;7.00;;;;;72.78;14.10;101378.00;4934975;28;45325;-94
2022/08/11 14:28:32;;;;;;;;;7.25;7.25;;;;;72.29;14.54;101368.50;4939972;28;45281;-94
2022/08/11 14:30:58;;;;;;;;;8.00;7.00;;;;;71.94;14.71;101358.69;4940037;28;45328;-94
2022/08/11 14:33:24;;;;;;;;;7.00;7.00;;;;;71.66;14.35;101369.72;4921217;28;47012;-94
2022/08/11 14:35:49;;;;;;;;;7.25;6.75;;;;;71.38;14.06;101376.59;4929115;28;45367;-93
2022/08/11 14:38:17;;;;;;;;;6.00;6.00;;;;;71.08;15.23;101357.06;4967838;28;45501;-95
2022/08/11 14:48:57;;;;;;;;;6.00;6.00;;;;;67.03;15.22;101347.28;4966114;28;45367;-94
2022/08/11 14:51:25;;;;;;;;;7.75;7.75;;;;;64.25;16.13;101325.75;4963445;28;45421;-93
2022/08/11 14:56:34;;;;;;;;;5.50;5.50;;;;;61.47;16.96;101329.34;4956900;28;47413;-94
2022/08/11 14:56:36;;;;;;;;;7.00;7.00;;;;;58.57;17.81;101316.50;4960285;28;45330;-94
2022/08/11 14:59:02;;;;;;;;;6.50;6.50;;;;;56.32;18.44;101312.31;4959095;28;45406;-94
2022/08/11 15:04:12;;;;;;;;;7.75;7.75;;;;;52.38;19.68;101299.66;4964556;28;45322;-91
2022/08/11 15:06:37;;;;;;;;;5.25;5.25;;;;;50.93;20.65;101302.47;4965755;28;45292;-93
2022/08/11 15:09:05;;;;;;;;;7.25;6.00;;;;;49.62;20.94;101294.41;4945747;28;45394;-93
2022/08/11 15:17:07;;;;;;;;;7.50;6.50;;;;;46.36;22.93;101288.16;4939668;28;45305;-93
2022/08/11 15:19:33;;;;;;;;;7.00;6.00;;;;;45.47;23.72;101296.78;4952947;28;45343;-92
2022/08/11 15:24:44;;;;;;;;;8.00;8.00;;;;;43.95;24.77;101283.84;4944653;28;45744;-93
2022/08/11 15:38:22;;;;;;;;;7.00;7.00;;;;;41.14;26.04;101282.00;4945454;28;45296;-93
2022/08/11 15:46:30;;;;;;;;;10.67;9.33;;;;;39.99;27.02;101271.13;4939665;28;45825;-93
2022/08/11 15:48:59;;;;;;;;;8.33;7.00;;;;;39.69;27.36;101272.34;4920613;28;46091;-92
2022/08/11 15:51:32;;;;;;;;;6.33;6.33;;;;;39.40;27.67;101277.03;4938546;28;45343;-92
2022/08/11 15:54:02;;;;;;;;;7.67;7.67;;;;;39.10;28.02;101268.06;4921811;28;45416;-93
2022/08/11 15:56:31;;;;;;;;;7.00;7.00;;;;;38.87;28.10;101280.59;4945269;28;45936;-93
2022/08/11 16:04:35;;;;;;;;;9.33;9.33;;;;;38.11;29.21;101270.84;4947948;28;45304;-92
2022/08/11 16:07:10;;;;;;;;;7.33;7.33;;;;;37.95;29.04;101259.97;4933739;28;47115;-92
2022/08/11 16:09:45;;;;;;;;;11.67;10.33;;;;;37.80;29.23;101265.44;4923034;28;45439;-93
2022/08/11 16:12:14;;;;;;;;;7.33;7.33;;;;;37.67;29.47;101259.84;4922411;28;45450;-93
2022/08/11 16:17:43;;;;;;;;;8.33;8.33;;;;;37.40;29.65;101263.31;4940375;28;45699;-94
2022/08/11 16:20:10;;;;;;;;;8.00;8.00;;;;;37.22;29.79;101258.84;4921213;28;45396;-94
2022/08/11 16:22:47;;;;;;;;;11.33;10.67;;;;;37.10;30.03;101268.69;4939313;28;45364;-94
2022/08/11 16:25:16;;;;;;;;;7.67;7.67;;;;;36.97;30.13;101268.53;4921701;28;45272;-94
2022/08/11 16:27:46;;;;;;;;;10.00;8.67;;;;;36.84;30.26;101253.78;4921099;28;47998;-94
2022/08/11 16:30:14;;;;;;;;;7.67;7.00;;;;;36.69;29.88;101252.84;4921501;28;45543;-94
2022/08/11 16:32:44;;;;;;;;;7.00;7.00;;;;;36.56;29.95;101250.81;4922294;28;45470;-94
2022/08/11 16:40:47;;;;;;;;;7.00;7.00;;;;;36.28;30.84;101250.53;4944920;28;45380;-93
2022/08/11 16:49:17;;;;;;;;;6.00;6.00;;;;;35.91;31.03;101241.63;4879771;29;45433;-93